sensor_id;sensor_type;location;lat;lon;timestamp;P1;durP1;ratioP1;P2;durP2;ratioP2
76712;SDS011;65640;43.154;25.658;2023-02-28T00:00:19;11.10;;;7.70;;
76712;SDS011;65640;43.154;25.658;2023-02-28T00:02:46;10.30;;;8.63;;
76712;SDS011;65640;43.154;25.658;2023-02-28T00:05:12;9.38;;;7.90;;
76712;SDS011;65640;43.154;25.658;2023-02-28T00:07:40;12.43;;;8.70;;
76712;SDS011;65640;43.154;25.658;2023-02-28T00:10:07;9.93;;;8.93;;
76712;SDS011;65640;43.154;25.658;2023-02-28T00:12:35;9.70;;;8.68;;
76712;SDS011;65640;43.154;25.658;2023-02-28T00:15:01;9.68;;;7.50;;
76712;SDS011;65640;43.154;25.658;2023-02-28T00:17:27;11.98;;;10.23;;
76712;SDS011;65640;43.154;25.658;2023-02-28T00:19:53;11.80;;;10.60;;
76712;SDS011;65640;43.154;25.658;2023-02-28T00:22:19;11.95;;;10.73;;
76712;SDS011;65640;43.154;25.658;2023-02-28T00:24:45;9.57;;;8.48;;
76712;SDS011;65640;43.154;25.658;2023-02-28T00:27:11;10.55;;;9.30;;
76712;SDS011;65640;43.154;25.658;2023-02-28T00:29:37;9.48;;;8.48;;
76712;SDS011;65640;43.154;25.658;2023-02-28T00:32:03;10.43;;;9.02;;
76712;SDS011;65640;43.154;25.658;2023-02-28T00:34:30;10.68;;;8.23;;
76712;SDS011;65640;43.154;25.658;2023-02-28T00:36:55;9.32;;;8.40;;
76712;SDS011;65640;43.154;25.658;2023-02-28T00:39:21;9.82;;;7.22;;
76712;SDS011;65640;43.154;25.658;2023-02-28T00:41:46;9.55;;;8.60;;
76712;SDS011;65640;43.154;25.658;2023-02-28T00:44:12;9.05;;;8.13;;
76712;SDS011;65640;43.154;25.658;2023-02-28T00:46:37;9.40;;;8.50;;
76712;SDS011;65640;43.154;25.658;2023-02-28T00:49:03;10.15;;;8.40;;
76712;SDS011;65640;43.154;25.658;2023-02-28T00:51:28;8.95;;;8.02;;
76712;SDS011;65640;43.154;25.658;2023-02-28T00:53:54;11.15;;;8.73;;
76712;SDS011;65640;43.154;25.658;2023-02-28T00:56:19;9.85;;;8.85;;
76712;SDS011;65640;43.154;25.658;2023-02-28T00:58:45;9.73;;;8.40;;
76712;SDS011;65640;43.154;25.658;2023-02-28T01:01:10;12.20;;;9.50;;
76712;SDS011;65640;43.154;25.658;2023-02-28T01:03:36;9.50;;;8.27;;
76712;SDS011;65640;43.154;25.658;2023-02-28T01:06:01;11.40;;;9.93;;
76712;SDS011;65640;43.154;25.658;2023-02-28T01:08:27;13.93;;;9.50;;
76712;SDS011;65640;43.154;25.658;2023-02-28T01:10:52;11.02;;;9.88;;
76712;SDS011;65640;43.154;25.658;2023-02-28T01:13:18;11.50;;;9.85;;
76712;SDS011;65640;43.154;25.658;2023-02-28T01:15:46;11.25;;;9.02;;
76712;SDS011;65640;43.154;25.658;2023-02-28T01:18:17;10.27;;;9.10;;
76712;SDS011;65640;43.154;25.658;2023-02-28T01:20:43;11.18;;;8.65;;
76712;SDS011;65640;43.154;25.658;2023-02-28T01:23:09;10.60;;;9.10;;
76712;SDS011;65640;43.154;25.658;2023-02-28T01:25:35;9.20;;;8.35;;
76712;SDS011;65640;43.154;25.658;2023-02-28T01:28:01;11.20;;;9.52;;
76712;SDS011;65640;43.154;25.658;2023-02-28T01:30:26;9.85;;;8.82;;
76712;SDS011;65640;43.154;25.658;2023-02-28T01:32:52;9.88;;;8.02;;
76712;SDS011;65640;43.154;25.658;2023-02-28T01:35:18;10.43;;;8.88;;
76712;SDS011;65640;43.154;25.658;2023-02-28T01:37:44;10.85;;;8.02;;
76712;SDS011;65640;43.154;25.658;2023-02-28T01:40:10;9.00;;;8.10;;
76712;SDS011;65640;43.154;25.658;2023-02-28T01:42:36;9.25;;;8.27;;
76712;SDS011;65640;43.154;25.658;2023-02-28T01:47:58;8.93;;;8.02;;
76712;SDS011;65640;43.154;25.658;2023-02-28T01:50:28;9.00;;;7.60;;
76712;SDS011;65640;43.154;25.658;2023-02-28T01:52:59;15.23;;;9.27;;
76712;SDS011;65640;43.154;25.658;2023-02-28T01:55:26;10.02;;;8.07;;
76712;SDS011;65640;43.154;25.658;2023-02-28T01:57:55;9.60;;;7.65;;
76712;SDS011;65640;43.154;25.658;2023-02-28T02:00:23;11.50;;;8.75;;
76712;SDS011;65640;43.154;25.658;2023-02-28T02:02:53;9.77;;;8.50;;
76712;SDS011;65640;43.154;25.658;2023-02-28T02:05:25;9.18;;;8.27;;
76712;SDS011;65640;43.154;25.658;2023-02-28T02:07:56;8.93;;;7.55;;
76712;SDS011;65640;43.154;25.658;2023-02-28T02:10:29;11.05;;;9.02;;
76712;SDS011;65640;43.154;25.658;2023-02-28T02:37:38;10.52;;;7.43;;
76712;SDS011;65640;43.154;25.658;2023-02-28T02:42:55;9.18;;;6.75;;
76712;SDS011;65640;43.154;25.658;2023-02-28T02:45:37;8.93;;;7.40;;
76712;SDS011;65640;43.154;25.658;2023-02-28T02:48:16;9.52;;;7.05;;
76712;SDS011;65640;43.154;25.658;2023-02-28T02:50:48;8.02;;;6.68;;
76712;SDS011;65640;43.154;25.658;2023-02-28T02:53:17;10.23;;;7.15;;
76712;SDS011;65640;43.154;25.658;2023-02-28T02:55:46;7.47;;;6.53;;
76712;SDS011;65640;43.154;25.658;2023-02-28T02:58:18;8.40;;;7.30;;
76712;SDS011;65640;43.154;25.658;2023-02-28T03:00:47;7.75;;;6.18;;
76712;SDS011;65640;43.154;25.658;2023-02-28T03:03:18;9.55;;;7.95;;
76712;SDS011;65640;43.154;25.658;2023-02-28T03:05:53;10.02;;;7.43;;
76712;SDS011;65640;43.154;25.658;2023-02-28T03:08:20;7.72;;;6.80;;
76712;SDS011;65640;43.154;25.658;2023-02-28T03:10:47;7.82;;;7.03;;
76712;SDS011;65640;43.154;25.658;2023-02-28T03:13:23;6.53;;;5.80;;
76712;SDS011;65640;43.154;25.658;2023-02-28T03:21:53;7.78;;;5.75;;
76712;SDS011;65640;43.154;25.658;2023-02-28T03:24:35;5.88;;;5.28;;
76712;SDS011;65640;43.154;25.658;2023-02-28T03:27:29;5.60;;;5.10;;
76712;SDS011;65640;43.154;25.658;2023-02-28T03:32:50;7.25;;;6.03;;
76712;SDS011;65640;43.154;25.658;2023-02-28T03:35:24;9.30;;;6.75;;
76712;SDS011;65640;43.154;25.658;2023-02-28T03:38:00;7.10;;;5.57;;
76712;SDS011;65640;43.154;25.658;2023-02-28T03:40:39;11.63;;;6.35;;
76712;SDS011;65640;43.154;25.658;2023-02-28T03:43:12;8.23;;;6.53;;
76712;SDS011;65640;43.154;25.658;2023-02-28T03:45:42;9.40;;;6.63;;
76712;SDS011;65640;43.154;25.658;2023-02-28T03:48:17;9.55;;;6.75;;
76712;SDS011;65640;43.154;25.658;2023-02-28T03:50:48;7.85;;;6.22;;
76712;SDS011;65640;43.154;25.658;2023-02-28T03:53:27;9.85;;;6.68;;
76712;SDS011;65640;43.154;25.658;2023-02-28T03:56:15;9.63;;;6.30;;
76712;SDS011;65640;43.154;25.658;2023-02-28T03:58:55;9.20;;;6.70;;
76712;SDS011;65640;43.154;25.658;2023-02-28T04:01:27;9.35;;;6.78;;
76712;SDS011;65640;43.154;25.658;2023-02-28T04:04:06;7.93;;;5.72;;
76712;SDS011;65640;43.154;25.658;2023-02-28T04:06:35;7.65;;;6.03;;
76712;SDS011;65640;43.154;25.658;2023-02-28T04:09:02;7.85;;;6.25;;
76712;SDS011;65640;43.154;25.658;2023-02-28T04:14:05;9.90;;;6.78;;
76712;SDS011;65640;43.154;25.658;2023-02-28T04:16:32;11.40;;;7.22;;
76712;SDS011;65640;43.154;25.658;2023-02-28T04:18:59;11.30;;;8.52;;
76712;SDS011;65640;43.154;25.658;2023-02-28T04:21:30;10.05;;;7.60;;
76712;SDS011;65640;43.154;25.658;2023-02-28T04:23:57;8.13;;;6.78;;
76712;SDS011;65640;43.154;25.658;2023-02-28T04:26:32;11.40;;;6.38;;
76712;SDS011;65640;43.154;25.658;2023-02-28T04:29:02;9.02;;;6.90;;
76712;SDS011;65640;43.154;25.658;2023-02-28T04:31:28;9.07;;;6.53;;
76712;SDS011;65640;43.154;25.658;2023-02-28T04:33:54;9.13;;;6.85;;
76712;SDS011;65640;43.154;25.658;2023-02-28T04:36:19;7.60;;;6.53;;
76712;SDS011;65640;43.154;25.658;2023-02-28T04:38:45;7.80;;;7.00;;
76712;SDS011;65640;43.154;25.658;2023-02-28T04:41:11;8.10;;;6.30;;
76712;SDS011;65640;43.154;25.658;2023-02-28T04:43:39;9.73;;;6.75;;
76712;SDS011;65640;43.154;25.658;2023-02-28T04:46:05;7.95;;;6.40;;
76712;SDS011;65640;43.154;25.658;2023-02-28T04:48:32;9.05;;;6.88;;
76712;SDS011;65640;43.154;25.658;2023-02-28T04:51:02;8.73;;;7.15;;
76712;SDS011;65640;43.154;25.658;2023-02-28T04:53:29;7.22;;;5.40;;
76712;SDS011;65640;43.154;25.658;2023-02-28T04:55:55;10.23;;;5.75;;
76712;SDS011;65640;43.154;25.658;2023-02-28T04:58:22;10.13;;;7.45;;
76712;SDS011;65640;43.154;25.658;2023-02-28T05:00:48;7.53;;;6.28;;
76712;SDS011;65640;43.154;25.658;2023-02-28T05:03:14;7.22;;;6.35;;
76712;SDS011;65640;43.154;25.658;2023-02-28T05:05:40;8.93;;;6.28;;
76712;SDS011;65640;43.154;25.658;2023-02-28T05:08:05;8.48;;;6.32;;
76712;SDS011;65640;43.154;25.658;2023-02-28T05:10:31;6.10;;;5.15;;
76712;SDS011;65640;43.154;25.658;2023-02-28T05:12:57;6.28;;;5.68;;
76712;SDS011;65640;43.154;25.658;2023-02-28T05:15:22;5.25;;;4.75;;
76712;SDS011;65640;43.154;25.658;2023-02-28T05:17:49;10.23;;;6.13;;
76712;SDS011;65640;43.154;25.658;2023-02-28T05:20:14;9.13;;;6.45;;
76712;SDS011;65640;43.154;25.658;2023-02-28T05:22:40;6.20;;;5.13;;
76712;SDS011;65640;43.154;25.658;2023-02-28T05:25:06;4.65;;;4.25;;
76712;SDS011;65640;43.154;25.658;2023-02-28T05:32:24;5.57;;;4.03;;
76712;SDS011;65640;43.154;25.658;2023-02-28T05:34:50;5.97;;;4.40;;
76712;SDS011;65640;43.154;25.658;2023-02-28T05:37:15;4.15;;;3.78;;
76712;SDS011;65640;43.154;25.658;2023-02-28T05:39:41;8.27;;;6.07;;
76712;SDS011;65640;43.154;25.658;2023-02-28T05:42:07;10.52;;;5.65;;
76712;SDS011;65640;43.154;25.658;2023-02-28T05:44:34;6.35;;;4.75;;
76712;SDS011;65640;43.154;25.658;2023-02-28T05:46:59;34.28;;;18.65;;
76712;SDS011;65640;43.154;25.658;2023-02-28T05:49:25;7.22;;;5.60;;
76712;SDS011;65640;43.154;25.658;2023-02-28T05:51:50;4.60;;;4.25;;
76712;SDS011;65640;43.154;25.658;2023-02-28T05:54:16;5.18;;;4.68;;
76712;SDS011;65640;43.154;25.658;2023-02-28T05:56:41;9.18;;;4.10;;
76712;SDS011;65640;43.154;25.658;2023-02-28T05:59:09;4.95;;;3.85;;
76712;SDS011;65640;43.154;25.658;2023-02-28T06:01:36;3.65;;;3.33;;
76712;SDS011;65640;43.154;25.658;2023-02-28T06:04:04;4.53;;;3.42;;
76712;SDS011;65640;43.154;25.658;2023-02-28T06:06:31;5.35;;;3.45;;
76712;SDS011;65640;43.154;25.658;2023-02-28T06:08:59;3.53;;;3.22;;
76712;SDS011;65640;43.154;25.658;2023-02-28T06:11:25;4.18;;;3.88;;
76712;SDS011;65640;43.154;25.658;2023-02-28T06:13:55;4.28;;;3.88;;
76712;SDS011;65640;43.154;25.658;2023-02-28T06:16:24;4.68;;;3.90;;
76712;SDS011;65640;43.154;25.658;2023-02-28T06:18:50;4.28;;;3.88;;
76712;SDS011;65640;43.154;25.658;2023-02-28T06:23:43;12.68;;;9.23;;
76712;SDS011;65640;43.154;25.658;2023-02-28T06:26:08;12.00;;;8.10;;
76712;SDS011;65640;43.154;25.658;2023-02-28T06:28:34;4.80;;;4.43;;
76712;SDS011;65640;43.154;25.658;2023-02-28T06:31:04;6.07;;;4.90;;
76712;SDS011;65640;43.154;25.658;2023-02-28T06:33:40;4.60;;;4.25;;
76712;SDS011;65640;43.154;25.658;2023-02-28T06:36:06;5.10;;;3.63;;
76712;SDS011;65640;43.154;25.658;2023-02-28T06:38:33;5.68;;;4.80;;
76712;SDS011;65640;43.154;25.658;2023-02-28T06:40:59;4.93;;;4.22;;
76712;SDS011;65640;43.154;25.658;2023-02-28T06:43:25;5.65;;;5.10;;
76712;SDS011;65640;43.154;25.658;2023-02-28T06:45:58;4.95;;;4.55;;
76712;SDS011;65640;43.154;25.658;2023-02-28T06:48:25;7.70;;;5.20;;
76712;SDS011;65640;43.154;25.658;2023-02-28T06:50:52;7.60;;;4.93;;
76712;SDS011;65640;43.154;25.658;2023-02-28T06:53:26;4.60;;;4.20;;
76712;SDS011;65640;43.154;25.658;2023-02-28T06:55:51;5.43;;;3.75;;
76712;SDS011;65640;43.154;25.658;2023-02-28T06:58:17;6.82;;;4.15;;
76712;SDS011;65640;43.154;25.658;2023-02-28T07:00:44;4.43;;;3.92;;
76712;SDS011;65640;43.154;25.658;2023-02-28T07:03:10;5.40;;;4.53;;
76712;SDS011;65640;43.154;25.658;2023-02-28T07:05:37;4.88;;;4.47;;
76712;SDS011;65640;43.154;25.658;2023-02-28T07:08:04;4.85;;;3.28;;
76712;SDS011;65640;43.154;25.658;2023-02-28T07:10:31;4.43;;;4.03;;
76712;SDS011;65640;43.154;25.658;2023-02-28T07:15:23;4.47;;;3.90;;
76712;SDS011;65640;43.154;25.658;2023-02-28T07:17:48;3.70;;;3.40;;
76712;SDS011;65640;43.154;25.658;2023-02-28T07:20:13;4.25;;;3.95;;
76712;SDS011;65640;43.154;25.658;2023-02-28T07:22:39;4.85;;;4.43;;
76712;SDS011;65640;43.154;25.658;2023-02-28T07:25:05;4.65;;;4.25;;
76712;SDS011;65640;43.154;25.658;2023-02-28T07:27:31;6.13;;;4.30;;
76712;SDS011;65640;43.154;25.658;2023-02-28T07:29:56;5.28;;;4.30;;
76712;SDS011;65640;43.154;25.658;2023-02-28T07:32:22;4.38;;;3.97;;
76712;SDS011;65640;43.154;25.658;2023-02-28T07:34:48;4.80;;;4.40;;
76712;SDS011;65640;43.154;25.658;2023-02-28T07:37:14;4.35;;;4.05;;
76712;SDS011;65640;43.154;25.658;2023-02-28T07:39:39;5.45;;;3.92;;
76712;SDS011;65640;43.154;25.658;2023-02-28T07:42:07;4.38;;;3.97;;
76712;SDS011;65640;43.154;25.658;2023-02-28T07:44:35;10.30;;;3.85;;
76712;SDS011;65640;43.154;25.658;2023-02-28T07:47:05;4.75;;;4.25;;
76712;SDS011;65640;43.154;25.658;2023-02-28T07:49:31;3.95;;;3.65;;
76712;SDS011;65640;43.154;25.658;2023-02-28T07:51:57;3.45;;;3.25;;
76712;SDS011;65640;43.154;25.658;2023-02-28T07:54:22;4.03;;;3.60;;
76712;SDS011;65640;43.154;25.658;2023-02-28T07:56:48;5.82;;;5.32;;
76712;SDS011;65640;43.154;25.658;2023-02-28T07:59:14;27.80;;;19.23;;
76712;SDS011;65640;43.154;25.658;2023-02-28T08:01:40;15.05;;;10.57;;
76712;SDS011;65640;43.154;25.658;2023-02-28T08:04:05;71.60;;;40.42;;
76712;SDS011;65640;43.154;25.658;2023-02-28T08:06:31;122.70;;;73.57;;
76712;SDS011;65640;43.154;25.658;2023-02-28T08:08:56;21.65;;;14.57;;
76712;SDS011;65640;43.154;25.658;2023-02-28T08:11:22;8.35;;;7.32;;
76712;SDS011;65640;43.154;25.658;2023-02-28T08:13:47;5.90;;;5.30;;
76712;SDS011;65640;43.154;25.658;2023-02-28T08:16:13;47.97;;;27.55;;
76712;SDS011;65640;43.154;25.658;2023-02-28T08:18:46;6.57;;;5.20;;
76712;SDS011;65640;43.154;25.658;2023-02-28T08:21:13;61.85;;;38.15;;
76712;SDS011;65640;43.154;25.658;2023-02-28T08:23:38;29.13;;;19.30;;
76712;SDS011;65640;43.154;25.658;2023-02-28T08:26:04;6.50;;;5.72;;
76712;SDS011;65640;43.154;25.658;2023-02-28T08:28:30;5.90;;;5.10;;
76712;SDS011;65640;43.154;25.658;2023-02-28T08:30:56;6.28;;;5.68;;
76712;SDS011;65640;43.154;25.658;2023-02-28T08:33:21;6.53;;;4.57;;
76712;SDS011;65640;43.154;25.658;2023-02-28T08:35:48;7.60;;;5.75;;
76712;SDS011;65640;43.154;25.658;2023-02-28T08:38:13;5.05;;;4.55;;
76712;SDS011;65640;43.154;25.658;2023-02-28T08:40:39;5.53;;;4.80;;
76712;SDS011;65640;43.154;25.658;2023-02-28T08:43:05;4.75;;;4.20;;
76712;SDS011;65640;43.154;25.658;2023-02-28T08:45:30;4.53;;;4.13;;
76712;SDS011;65640;43.154;25.658;2023-02-28T08:47:56;9.15;;;6.38;;
76712;SDS011;65640;43.154;25.658;2023-02-28T08:50:21;16.90;;;9.52;;
76712;SDS011;65640;43.154;25.658;2023-02-28T08:52:47;5.40;;;4.93;;
76712;SDS011;65640;43.154;25.658;2023-02-28T08:55:12;22.10;;;9.23;;
76712;SDS011;65640;43.154;25.658;2023-02-28T08:57:38;9.40;;;6.05;;
76712;SDS011;65640;43.154;25.658;2023-02-28T09:00:03;9.93;;;6.63;;
76712;SDS011;65640;43.154;25.658;2023-02-28T09:02:32;5.22;;;4.13;;
76712;SDS011;65640;43.154;25.658;2023-02-28T09:04:58;4.65;;;4.25;;
76712;SDS011;65640;43.154;25.658;2023-02-28T09:07:24;7.25;;;5.80;;
76712;SDS011;65640;43.154;25.658;2023-02-28T09:09:50;5.35;;;4.85;;
76712;SDS011;65640;43.154;25.658;2023-02-28T09:12:20;4.78;;;4.32;;
76712;SDS011;65640;43.154;25.658;2023-02-28T09:14:49;13.60;;;7.03;;
76712;SDS011;65640;43.154;25.658;2023-02-28T09:17:15;15.88;;;8.18;;
76712;SDS011;65640;43.154;25.658;2023-02-28T09:19:41;20.33;;;10.65;;
76712;SDS011;65640;43.154;25.658;2023-02-28T09:22:07;6.10;;;5.43;;
76712;SDS011;65640;43.154;25.658;2023-02-28T09:24:33;5.07;;;4.68;;
76712;SDS011;65640;43.154;25.658;2023-02-28T09:26:58;5.10;;;4.07;;
76712;SDS011;65640;43.154;25.658;2023-02-28T09:29:23;4.70;;;4.07;;
76712;SDS011;65640;43.154;25.658;2023-02-28T09:31:49;6.07;;;4.22;;
76712;SDS011;65640;43.154;25.658;2023-02-28T09:34:15;3.72;;;3.42;;
76712;SDS011;65640;43.154;25.658;2023-02-28T09:36:42;7.40;;;4.45;;
76712;SDS011;65640;43.154;25.658;2023-02-28T09:39:08;3.70;;;3.40;;
76712;SDS011;65640;43.154;25.658;2023-02-28T09:41:38;5.15;;;4.65;;
76712;SDS011;65640;43.154;25.658;2023-02-28T09:44:13;4.88;;;3.53;;
76712;SDS011;65640;43.154;25.658;2023-02-28T09:46:48;3.97;;;3.67;;
76712;SDS011;65640;43.154;25.658;2023-02-28T09:49:26;4.70;;;4.20;;
76712;SDS011;65640;43.154;25.658;2023-02-28T09:52:02;4.90;;;4.40;;
76712;SDS011;65640;43.154;25.658;2023-02-28T09:54:34;3.53;;;3.28;;
76712;SDS011;65640;43.154;25.658;2023-02-28T09:57:08;5.13;;;3.88;;
76712;SDS011;65640;43.154;25.658;2023-02-28T10:12:52;6.20;;;3.85;;
76712;SDS011;65640;43.154;25.658;2023-02-28T10:15:19;8.68;;;5.00;;
76712;SDS011;65640;43.154;25.658;2023-02-28T10:17:48;4.88;;;4.47;;
76712;SDS011;65640;43.154;25.658;2023-02-28T10:20:20;6.30;;;4.38;;
76712;SDS011;65640;43.154;25.658;2023-02-28T10:25:21;5.20;;;3.83;;
76712;SDS011;65640;43.154;25.658;2023-02-28T10:27:49;7.03;;;4.07;;
76712;SDS011;65640;43.154;25.658;2023-02-28T10:30:18;4.95;;;4.25;;
76712;SDS011;65640;43.154;25.658;2023-02-28T10:32:50;6.30;;;4.10;;
76712;SDS011;65640;43.154;25.658;2023-02-28T10:35:22;4.50;;;3.88;;
76712;SDS011;65640;43.154;25.658;2023-02-28T10:37:52;4.57;;;4.10;;
76712;SDS011;65640;43.154;25.658;2023-02-28T10:42:58;7.15;;;4.85;;
76712;SDS011;65640;43.154;25.658;2023-02-28T10:45:31;5.45;;;4.97;;
76712;SDS011;65640;43.154;25.658;2023-02-28T10:48:44;5.85;;;5.28;;
76712;SDS011;65640;43.154;25.658;2023-02-28T10:50:56;6.13;;;4.60;;
76712;SDS011;65640;43.154;25.658;2023-02-28T10:55:59;5.47;;;4.97;;
76712;SDS011;65640;43.154;25.658;2023-02-28T10:58:30;6.82;;;6.10;;
76712;SDS011;65640;43.154;25.658;2023-02-28T11:01:18;9.40;;;5.35;;
76712;SDS011;65640;43.154;25.658;2023-02-28T11:03:45;6.30;;;5.72;;
76712;SDS011;65640;43.154;25.658;2023-02-28T11:06:16;5.82;;;4.82;;
76712;SDS011;65640;43.154;25.658;2023-02-28T11:08:48;9.35;;;4.88;;
76712;SDS011;65640;43.154;25.658;2023-02-28T11:11:17;6.25;;;5.65;;
76712;SDS011;65640;43.154;25.658;2023-02-28T11:18:52;6.40;;;5.72;;
76712;SDS011;65640;43.154;25.658;2023-02-28T11:21:36;8.85;;;7.95;;
76712;SDS011;65640;43.154;25.658;2023-02-28T11:26:53;17.83;;;10.50;;
76712;SDS011;65640;43.154;25.658;2023-02-28T11:32:31;8.48;;;7.53;;
76712;SDS011;65640;43.154;25.658;2023-02-28T11:34:37;8.93;;;6.57;;
76712;SDS011;65640;43.154;25.658;2023-02-28T11:37:05;17.63;;;10.00;;
76712;SDS011;65640;43.154;25.658;2023-02-28T11:39:35;9.15;;;7.85;;
76712;SDS011;65640;43.154;25.658;2023-02-28T11:50:49;10.75;;;6.85;;
76712;SDS011;65640;43.154;25.658;2023-02-28T11:59:47;11.38;;;8.45;;
76712;SDS011;65640;43.154;25.658;2023-02-28T12:02:30;9.07;;;7.40;;
76712;SDS011;65640;43.154;25.658;2023-02-28T12:13:25;8.57;;;7.75;;
76712;SDS011;65640;43.154;25.658;2023-02-28T12:18:48;7.55;;;6.88;;
76712;SDS011;65640;43.154;25.658;2023-02-28T12:26:48;13.27;;;7.80;;
76712;SDS011;65640;43.154;25.658;2023-02-28T12:29:21;8.55;;;7.57;;
76712;SDS011;65640;43.154;25.658;2023-02-28T12:34:52;10.63;;;8.30;;
76712;SDS011;65640;43.154;25.658;2023-02-28T12:40:11;14.02;;;8.38;;
76712;SDS011;65640;43.154;25.658;2023-02-28T12:42:42;9.35;;;8.45;;
76712;SDS011;65640;43.154;25.658;2023-02-28T12:45:18;11.35;;;8.45;;
76712;SDS011;65640;43.154;25.658;2023-02-28T12:47:46;9.10;;;8.20;;
76712;SDS011;65640;43.154;25.658;2023-02-28T12:50:15;10.13;;;7.90;;
76712;SDS011;65640;43.154;25.658;2023-02-28T12:53:01;11.77;;;8.45;;
76712;SDS011;65640;43.154;25.658;2023-02-28T12:55:40;11.35;;;9.20;;
76712;SDS011;65640;43.154;25.658;2023-02-28T13:11:51;12.10;;;9.40;;
76712;SDS011;65640;43.154;25.658;2023-02-28T13:19:32;15.40;;;11.73;;
76712;SDS011;65640;43.154;25.658;2023-02-28T13:21:59;13.18;;;10.27;;
76712;SDS011;65640;43.154;25.658;2023-02-28T13:43:01;14.00;;;10.38;;
76712;SDS011;65640;43.154;25.658;2023-02-28T13:45:28;15.05;;;11.98;;
76712;SDS011;65640;43.154;25.658;2023-02-28T13:48:04;17.30;;;11.30;;
76712;SDS011;65640;43.154;25.658;2023-02-28T13:50:40;18.58;;;12.20;;
76712;SDS011;65640;43.154;25.658;2023-02-28T13:53:21;16.33;;;12.02;;
76712;SDS011;65640;43.154;25.658;2023-02-28T13:56:07;18.90;;;13.75;;
76712;SDS011;65640;43.154;25.658;2023-02-28T13:59:03;23.45;;;12.23;;
76712;SDS011;65640;43.154;25.658;2023-02-28T14:04:35;22.98;;;11.15;;
76712;SDS011;65640;43.154;25.658;2023-02-28T14:07:04;14.20;;;10.70;;
76712;SDS011;65640;43.154;25.658;2023-02-28T14:09:35;17.58;;;12.40;;
76712;SDS011;65640;43.154;25.658;2023-02-28T14:17:54;19.63;;;12.18;;
76712;SDS011;65640;43.154;25.658;2023-02-28T14:20:21;20.20;;;12.63;;
76712;SDS011;65640;43.154;25.658;2023-02-28T14:22:53;18.38;;;13.60;;
76712;SDS011;65640;43.154;25.658;2023-02-28T14:27:58;19.23;;;13.32;;
76712;SDS011;65640;43.154;25.658;2023-02-28T14:38:52;19.40;;;13.45;;
76712;SDS011;65640;43.154;25.658;2023-02-28T14:41:39;24.88;;;16.60;;
76712;SDS011;65640;43.154;25.658;2023-02-28T14:44:22;24.70;;;14.43;;
76712;SDS011;65640;43.154;25.658;2023-02-28T14:46:49;22.40;;;15.15;;
76712;SDS011;65640;43.154;25.658;2023-02-28T14:51:49;26.20;;;16.75;;
76712;SDS011;65640;43.154;25.658;2023-02-28T14:54:16;29.17;;;15.55;;
76712;SDS011;65640;43.154;25.658;2023-02-28T14:56:49;24.20;;;15.18;;
76712;SDS011;65640;43.154;25.658;2023-02-28T14:59:28;22.75;;;14.32;;
76712;SDS011;65640;43.154;25.658;2023-02-28T15:07:24;24.73;;;16.45;;
76712;SDS011;65640;43.154;25.658;2023-02-28T15:12:53;23.58;;;15.32;;
76712;SDS011;65640;43.154;25.658;2023-02-28T15:15:24;23.73;;;14.45;;
76712;SDS011;65640;43.154;25.658;2023-02-28T15:17:57;23.65;;;14.70;;
76712;SDS011;65640;43.154;25.658;2023-02-28T15:20:25;27.10;;;15.63;;
76712;SDS011;65640;43.154;25.658;2023-02-28T15:22:52;25.17;;;15.63;;
76712;SDS011;65640;43.154;25.658;2023-02-28T15:25:21;29.88;;;16.60;;
76712;SDS011;65640;43.154;25.658;2023-02-28T15:27:51;29.63;;;16.52;;
76712;SDS011;65640;43.154;25.658;2023-02-28T15:30:30;27.30;;;16.60;;
76712;SDS011;65640;43.154;25.658;2023-02-28T15:33:19;25.20;;;16.33;;
76712;SDS011;65640;43.154;25.658;2023-02-28T15:35:45;29.25;;;18.50;;
76712;SDS011;65640;43.154;25.658;2023-02-28T15:40:49;25.70;;;15.15;;
76712;SDS011;65640;43.154;25.658;2023-02-28T15:43:29;22.88;;;13.98;;
76712;SDS011;65640;43.154;25.658;2023-02-28T15:46:01;24.27;;;15.07;;
76712;SDS011;65640;43.154;25.658;2023-02-28T15:51:14;34.90;;;16.77;;
76712;SDS011;65640;43.154;25.658;2023-02-28T15:53:51;35.70;;;17.02;;
76712;SDS011;65640;43.154;25.658;2023-02-28T15:56:26;36.90;;;17.17;;
76712;SDS011;65640;43.154;25.658;2023-02-28T15:59:08;43.10;;;20.38;;
76712;SDS011;65640;43.154;25.658;2023-02-28T16:01:41;45.67;;;26.98;;
76712;SDS011;65640;43.154;25.658;2023-02-28T16:04:14;20.67;;;13.43;;
76712;SDS011;65640;43.154;25.658;2023-02-28T16:06:45;26.13;;;15.18;;
76712;SDS011;65640;43.154;25.658;2023-02-28T16:09:14;55.05;;;24.70;;
76712;SDS011;65640;43.154;25.658;2023-02-28T16:11:42;24.83;;;15.48;;
76712;SDS011;65640;43.154;25.658;2023-02-28T16:14:21;27.00;;;16.05;;
76712;SDS011;65640;43.154;25.658;2023-02-28T16:16:49;25.30;;;16.10;;
76712;SDS011;65640;43.154;25.658;2023-02-28T16:19:16;34.15;;;18.08;;
76712;SDS011;65640;43.154;25.658;2023-02-28T16:21:42;25.98;;;14.80;;
76712;SDS011;65640;43.154;25.658;2023-02-28T16:24:08;31.25;;;13.95;;
76712;SDS011;65640;43.154;25.658;2023-02-28T16:26:33;36.50;;;15.20;;
76712;SDS011;65640;43.154;25.658;2023-02-28T16:29:00;91.28;;;26.30;;
76712;SDS011;65640;43.154;25.658;2023-02-28T16:31:27;88.70;;;28.55;;
76712;SDS011;65640;43.154;25.658;2023-02-28T16:33:53;50.33;;;19.88;;
76712;SDS011;65640;43.154;25.658;2023-02-28T16:36:22;61.17;;;24.23;;
76712;SDS011;65640;43.154;25.658;2023-02-28T16:38:53;71.72;;;24.52;;
76712;SDS011;65640;43.154;25.658;2023-02-28T16:41:20;28.52;;;13.20;;
76712;SDS011;65640;43.154;25.658;2023-02-28T16:43:48;24.95;;;12.10;;
76712;SDS011;65640;43.154;25.658;2023-02-28T16:46:15;27.20;;;14.30;;
76712;SDS011;65640;43.154;25.658;2023-02-28T16:48:42;20.38;;;11.05;;
76712;SDS011;65640;43.154;25.658;2023-02-28T16:51:12;18.80;;;10.82;;
76712;SDS011;65640;43.154;25.658;2023-02-28T16:53:38;31.92;;;15.20;;
76712;SDS011;65640;43.154;25.658;2023-02-28T16:56:04;37.00;;;16.20;;
76712;SDS011;65640;43.154;25.658;2023-02-28T16:58:31;26.85;;;14.60;;
76712;SDS011;65640;43.154;25.658;2023-02-28T17:01:00;25.02;;;14.15;;
76712;SDS011;65640;43.154;25.658;2023-02-28T17:03:27;38.72;;;18.20;;
76712;SDS011;65640;43.154;25.658;2023-02-28T17:05:54;20.35;;;11.50;;
76712;SDS011;65640;43.154;25.658;2023-02-28T17:08:20;18.80;;;11.38;;
76712;SDS011;65640;43.154;25.658;2023-02-28T17:10:45;26.77;;;14.40;;
76712;SDS011;65640;43.154;25.658;2023-02-28T17:13:11;24.48;;;14.10;;
76712;SDS011;65640;43.154;25.658;2023-02-28T17:15:37;34.20;;;16.55;;
76712;SDS011;65640;43.154;25.658;2023-02-28T17:18:03;29.17;;;14.27;;
76712;SDS011;65640;43.154;25.658;2023-02-28T17:20:29;17.08;;;11.10;;
76712;SDS011;65640;43.154;25.658;2023-02-28T17:22:55;20.23;;;11.77;;
76712;SDS011;65640;43.154;25.658;2023-02-28T17:25:21;19.73;;;10.90;;
76712;SDS011;65640;43.154;25.658;2023-02-28T17:32:46;13.60;;;9.27;;
76712;SDS011;65640;43.154;25.658;2023-02-28T17:35:12;27.33;;;11.60;;
76712;SDS011;65640;43.154;25.658;2023-02-28T17:37:38;14.65;;;7.95;;
76712;SDS011;65640;43.154;25.658;2023-02-28T17:40:04;8.60;;;7.38;;
76712;SDS011;65640;43.154;25.658;2023-02-28T17:42:30;11.30;;;7.13;;
76712;SDS011;65640;43.154;25.658;2023-02-28T17:44:56;14.77;;;10.52;;
76712;SDS011;65640;43.154;25.658;2023-02-28T17:47:21;14.02;;;8.93;;
76712;SDS011;65640;43.154;25.658;2023-02-28T17:49:46;13.50;;;9.65;;
76712;SDS011;65640;43.154;25.658;2023-02-28T17:52:12;21.90;;;10.40;;
76712;SDS011;65640;43.154;25.658;2023-02-28T17:54:37;25.00;;;13.00;;